F/V Oceanie — FVBW — position and weather

sailwx.info

Track history (hours):
 
Tides and Currents Weather Stations Pressure Air Temp Water Temp Dewpoint Dewpoint Depression Visibility Wind Speed Wind Dir Waves Ship Positions

F/V Oceanie

Last reported at 2015-Aug-22 00:33 UTC. Time now 2015-Sep-04 05:53 UTC.
Position N 47°44' W 003°22'.
Warning: this ship's position is 13 days out of date.

Length 16 m.

Type: Fishing. MMSI: 228370000.

Date/timePositionNaut miles runAvg speedWind from/ knotsBaromVisibWave heightAir tempDewpointWater temp
2015-Aug-22 00:33N 47°44' W 003°22'0 0.0
2015-Aug-21 23:33N 47°44' W 003°22'8 7.9
2015-Aug-21 22:33N 47°36' W 003°22'9 9.1
2015-Aug-21 21:33N 47°27' W 003°22'9 9.0
2015-Aug-21 20:33N 47°18' W 003°22'9 9.1
2015-Aug-21 19:33N 47°09' W 003°21'9 9.1
2015-Aug-21 18:33N 46°60' W 003°20'7 6.9
2015-Aug-21 17:33N 46°53' W 003°20'4 3.7
2015-Aug-21 16:33N 46°50' W 003°17'1 1.2
2015-Aug-21 15:33N 46°49' W 003°15'3 3.4
2015-Aug-21 14:33N 46°49' W 003°20'4 4.0
2015-Aug-21 13:33N 46°48' W 003°15'3 2.5
2015-Aug-21 12:33N 46°50' W 003°17'2 1.5
2015-Aug-21 11:33N 46°49' W 003°19'4 4.2
2015-Aug-21 10:33N 46°48' W 003°13'3 3.1
2015-Aug-21 09:33N 46°50' W 003°17'2 1.7
2015-Aug-21 08:33N 46°50' W 003°19'4 3.9
2015-Aug-21 07:33N 46°50' W 003°13'2 1.6
2015-Aug-21 06:33N 46°50' W 003°15'3 3.2
2015-Aug-21 05:33N 46°49' W 003°20'3 3.3
2015-Aug-21 04:32N 46°47' W 003°16'4 4.1
2015-Aug-21 03:33N 46°44' W 003°13'4 3.7
2015-Aug-21 02:33N 46°42' W 003°08'4 4.0
2015-Aug-21 01:33N 46°41' W 003°02'2 2.3
2015-Aug-21 00:33N 46°42' W 002°59'2 2.1
2015-Aug-20 23:33N 46°42' W 003°02'2 1.7
2015-Aug-20 22:33N 46°41' W 003°02'4 4.2
2015-Aug-20 21:33N 46°44' W 003°06'4 4.2
2015-Aug-20 20:33N 46°46' W 003°11'4 3.7
2015-Aug-20 19:33N 46°48' W 003°16'3 3.3
2015-Aug-20 18:32N 46°50' W 003°20'4 3.8
2015-Aug-20 17:30N 46°49' W 003°14'4 4.0
2015-Aug-20 16:29N 46°49' W 003°20'3 1.4
2015-Aug-20 14:33N 46°49' W 003°16'2 2.4
2015-Aug-20 13:32N 46°50' W 003°19'3 3.0
2015-Aug-20 12:30N 46°53' W 003°19'4 3.2
2015-Aug-20 11:09N 46°53' W 003°25'3 4.1
2015-Aug-20 10:29N 46°50' W 003°25'3 2.5
2015-Aug-20 09:26N 46°49' W 003°29'4 3.9
2015-Aug-20 08:27N 46°53' W 003°28'3 3.6
2015-Aug-20 07:33N 46°56' W 003°26'8 4.0
2015-Aug-20 05:27N 47°04' W 003°27'4 4.7
2015-Aug-20 04:33N 47°08' W 003°27'9 8.8
2015-Aug-20 03:33N 47°17' W 003°25'9 8.5
2015-Aug-20 02:33N 47°26' W 003°24'9 8.9
2015-Aug-20 01:33N 47°34' W 003°23'9 9.1
2015-Aug-20 00:33N 47°44' W 003°22'4 4.1
2015-Aug-19 23:33N 47°40' W 003°22'9 9.4
2015-Aug-19 22:33N 47°30' W 003°23'9 9.2
2015-Aug-19 21:33N 47°21' W 003°25'9 9.2
2015-Aug-19 20:33N 47°12' W 003°26'5 4.6
2015-Aug-19 19:32N 47°07' W 003°27'13 2.0
2015-Aug-19 13:13N 46°54' W 003°29'5 1.0
2015-Aug-19 08:24N 46°50' W 003°28'4 3.2
2015-Aug-19 07:15N 46°53' W 003°27'4 4.2
2015-Aug-19 06:12N 46°57' W 003°26'4 4.2
2015-Aug-19 05:16N 47°01' W 003°27'3 4.2
2015-Aug-19 04:28N 47°05' W 003°27'8 8.8
2015-Aug-19 03:33N 47°13' W 003°25'9 9.0
2015-Aug-19 02:33N 47°22' W 003°24'9 9.0
2015-Aug-19 01:33N 47°31' W 003°23'9 9.1
2015-Aug-19 00:33N 47°40' W 003°22'3 3.2
2015-Aug-18 23:33N 47°43' W 003°22'9 8.8
2015-Aug-18 22:33N 47°34' W 003°25'9 9.2
2015-Aug-18 21:33N 47°26' W 003°31'7 7.3
2015-Aug-18 20:33N 47°20' W 003°36'2 1.8
2015-Aug-18 19:33N 47°18' W 003°38'1 0.9
2015-Aug-18 18:33N 47°19' W 003°39'4 4.1
2015-Aug-18 17:33N 47°16' W 003°44'4 3.8
2015-Aug-18 16:33N 47°14' W 003°48'1 1.1
2015-Aug-18 15:33N 47°15' W 003°47'2 2.2
2015-Aug-18 14:33N 47°13' W 003°49'2 1.6
2015-Aug-18 13:33N 47°14' W 003°48'4 4.1
2015-Aug-18 12:33N 47°14' W 003°53'3 2.7
2015-Aug-18 11:33N 47°13' W 003°50'2 1.8
2015-Aug-18 10:33N 47°14' W 003°47'2 1.6
2015-Aug-18 09:31N 47°13' W 003°49'2 1.7
2015-Aug-18 08:33N 47°14' W 003°48'2 1.5
2015-Aug-18 07:32N 47°13' W 003°49'3 2.5
2015-Aug-18 06:28N 47°15' W 003°47'4 4.0
2015-Aug-18 05:33N 47°17' W 003°42'4 4.2
2015-Aug-18 04:33N 47°20' W 003°37'4 8.6
2015-Aug-18 04:09N 47°23' W 003°35'0 9.1
2015-Aug-18 04:08N 47°23' W 003°35'5 8.7
2015-Aug-18 03:33N 47°27' W 003°31'9 8.9
2015-Aug-18 02:33N 47°35' W 003°24'9 8.8
2015-Aug-18 01:33N 47°44' W 003°22'4 4.2
2015-Aug-18 00:33N 47°39' W 003°22'9 9.5
2015-Aug-17 23:33N 47°30' W 003°23'9 9.3
2015-Aug-17 22:33N 47°21' W 003°25'9 9.2
2015-Aug-17 21:33N 47°12' W 003°26'9 8.6
2015-Aug-17 20:33N 47°03' W 003°27'3 3.4
2015-Aug-17 19:32N 46°60' W 003°26'4 3.9
2015-Aug-17 18:30N 46°55' W 003°25'4 4.0
2015-Aug-17 17:33N 46°52' W 003°25'4 1.6
2015-Aug-17 15:17N 46°48' W 003°23'5 1.2
2015-Aug-17 11:19N 46°52' W 003°27'8 1.6
2015-Aug-17 06:32N 46°60' W 003°25'4 4.2
2015-Aug-17 05:33N 47°04' W 003°25'5 5.3
2015-Aug-17 04:33N 47°09' W 003°25'9 9.4
2015-Aug-17 03:33N 47°19' W 003°24'9 8.9
2015-Aug-17 02:33N 47°28' W 003°23'9 8.9
2015-Aug-17 01:33N 47°36' W 003°22'7 7.3
2015-Aug-17 00:33N 47°44' W 003°22'  
2015-Aug-14 03:34N 47°44' W 003°22'0 0.0
2015-Aug-14 02:33N 47°44' W 003°22'0 0.0
2015-Aug-14 01:33N 47°44' W 003°22'0 0.0
2015-Aug-14 00:34N 47°44' W 003°22'4 4.0
2015-Aug-13 23:34N 47°40' W 003°22'10 9.6
2015-Aug-13 22:33N 47°30' W 003°23'10 9.6
2015-Aug-13 21:34N 47°21' W 003°24'10 9.6
2015-Aug-13 20:33N 47°11' W 003°25'19 1.1
2015-Aug-13 03:09N 46°52' W 003°33'0 0.1
2015-Aug-12 23:18N 46°52' W 003°33'3 3.2
2015-Aug-12 22:30N 46°53' W 003°30'4 3.7
2015-Aug-12 21:30N 46°51' W 003°27'16 0.9
2015-Aug-12 03:24N 47°06' W 003°23'8 9.3
2015-Aug-12 02:33N 47°14' W 003°24'10 9.8
2015-Aug-12 01:34N 47°24' W 003°23'9 9.3
2015-Aug-12 00:34N 47°33' W 003°23'  
Track history (hours):
 
Tides and Currents Weather Stations Pressure Air Temp Water Temp Dewpoint Dewpoint Depression Visibility Wind Speed Wind Dir Waves Ship Positions

F/V Oceanie

Last reported at 2015-Aug-22 00:33 UTC. Time now 2015-Sep-04 05:53 UTC.
Position N 47°44' W 003°22'.
Warning: this ship's position is 13 days out of date.

Length 16 m.

Type: Fishing. MMSI: 228370000.

Date/timePositionNaut miles runAvg speedWind from/ knotsBaromVisibWave heightAir tempDewpointWater temp
2015-Aug-22 00:33N 47°44' W 003°22'0 0.0
2015-Aug-21 23:33N 47°44' W 003°22'8 7.9
2015-Aug-21 22:33N 47°36' W 003°22'9 9.1
2015-Aug-21 21:33N 47°27' W 003°22'9 9.0
2015-Aug-21 20:33N 47°18' W 003°22'9 9.1
2015-Aug-21 19:33N 47°09' W 003°21'9 9.1
2015-Aug-21 18:33N 46°60' W 003°20'7 6.9
2015-Aug-21 17:33N 46°53' W 003°20'4 3.7
2015-Aug-21 16:33N 46°50' W 003°17'1 1.2
2015-Aug-21 15:33N 46°49' W 003°15'3 3.4
2015-Aug-21 14:33N 46°49' W 003°20'4 4.0
2015-Aug-21 13:33N 46°48' W 003°15'3 2.5
2015-Aug-21 12:33N 46°50' W 003°17'2 1.5
2015-Aug-21 11:33N 46°49' W 003°19'4 4.2
2015-Aug-21 10:33N 46°48' W 003°13'3 3.1
2015-Aug-21 09:33N 46°50' W 003°17'2 1.7
2015-Aug-21 08:33N 46°50' W 003°19'4 3.9
2015-Aug-21 07:33N 46°50' W 003°13'2 1.6
2015-Aug-21 06:33N 46°50' W 003°15'3 3.2
2015-Aug-21 05:33N 46°49' W 003°20'3 3.3
2015-Aug-21 04:32N 46°47' W 003°16'4 4.1
2015-Aug-21 03:33N 46°44' W 003°13'4 3.7
2015-Aug-21 02:33N 46°42' W 003°08'4 4.0
2015-Aug-21 01:33N 46°41' W 003°02'2 2.3
2015-Aug-21 00:33N 46°42' W 002°59'2 2.1
2015-Aug-20 23:33N 46°42' W 003°02'2 1.7
2015-Aug-20 22:33N 46°41' W 003°02'4 4.2
2015-Aug-20 21:33N 46°44' W 003°06'4 4.2
2015-Aug-20 20:33N 46°46' W 003°11'4 3.7
2015-Aug-20 19:33N 46°48' W 003°16'3 3.3
2015-Aug-20 18:32N 46°50' W 003°20'4 3.8
2015-Aug-20 17:30N 46°49' W 003°14'4 4.0
2015-Aug-20 16:29N 46°49' W 003°20'3 1.4
2015-Aug-20 14:33N 46°49' W 003°16'2 2.4
2015-Aug-20 13:32N 46°50' W 003°19'3 3.0
2015-Aug-20 12:30N 46°53' W 003°19'4 3.2
2015-Aug-20 11:09N 46°53' W 003°25'3 4.1
2015-Aug-20 10:29N 46°50' W 003°25'3 2.5
2015-Aug-20 09:26N 46°49' W 003°29'4 3.9
2015-Aug-20 08:27N 46°53' W 003°28'3 3.6
2015-Aug-20 07:33N 46°56' W 003°26'8 4.0
2015-Aug-20 05:27N 47°04' W 003°27'4 4.7
2015-Aug-20 04:33N 47°08' W 003°27'9 8.8
2015-Aug-20 03:33N 47°17' W 003°25'9 8.5
2015-Aug-20 02:33N 47°26' W 003°24'9 8.9
2015-Aug-20 01:33N 47°34' W 003°23'9 9.1
2015-Aug-20 00:33N 47°44' W 003°22'4 4.1
2015-Aug-19 23:33N 47°40' W 003°22'9 9.4
2015-Aug-19 22:33N 47°30' W 003°23'9 9.2
2015-Aug-19 21:33N 47°21' W 003°25'9 9.2
2015-Aug-19 20:33N 47°12' W 003°26'5 4.6
2015-Aug-19 19:32N 47°07' W 003°27'13 2.0
2015-Aug-19 13:13N 46°54' W 003°29'5 1.0
2015-Aug-19 08:24N 46°50' W 003°28'4 3.2
2015-Aug-19 07:15N 46°53' W 003°27'4 4.2
2015-Aug-19 06:12N 46°57' W 003°26'4 4.2
2015-Aug-19 05:16N 47°01' W 003°27'3 4.2
2015-Aug-19 04:28N 47°05' W 003°27'8 8.8
2015-Aug-19 03:33N 47°13' W 003°25'9 9.0
2015-Aug-19 02:33N 47°22' W 003°24'9 9.0
2015-Aug-19 01:33N 47°31' W 003°23'9 9.1
2015-Aug-19 00:33N 47°40' W 003°22'3 3.2
2015-Aug-18 23:33N 47°43' W 003°22'9 8.8
2015-Aug-18 22:33N 47°34' W 003°25'9 9.2
2015-Aug-18 21:33N 47°26' W 003°31'7 7.3
2015-Aug-18 20:33N 47°20' W 003°36'2 1.8
2015-Aug-18 19:33N 47°18' W 003°38'1 0.9
2015-Aug-18 18:33N 47°19' W 003°39'4 4.1
2015-Aug-18 17:33N 47°16' W 003°44'4 3.8
2015-Aug-18 16:33N 47°14' W 003°48'1 1.1
2015-Aug-18 15:33N 47°15' W 003°47'2 2.2
2015-Aug-18 14:33N 47°13' W 003°49'2 1.6
2015-Aug-18 13:33N 47°14' W 003°48'4 4.1
2015-Aug-18 12:33N 47°14' W 003°53'3 2.7
2015-Aug-18 11:33N 47°13' W 003°50'2 1.8
2015-Aug-18 10:33N 47°14' W 003°47'2 1.6
2015-Aug-18 09:31N 47°13' W 003°49'2 1.7
2015-Aug-18 08:33N 47°14' W 003°48'2 1.5
2015-Aug-18 07:32N 47°13' W 003°49'3 2.5
2015-Aug-18 06:28N 47°15' W 003°47'4 4.0
2015-Aug-18 05:33N 47°17' W 003°42'4 4.2
2015-Aug-18 04:33N 47°20' W 003°37'4 8.6
2015-Aug-18 04:09N 47°23' W 003°35'0 9.1
2015-Aug-18 04:08N 47°23' W 003°35'5 8.7
2015-Aug-18 03:33N 47°27' W 003°31'9 8.9
2015-Aug-18 02:33N 47°35' W 003°24'9 8.8
2015-Aug-18 01:33N 47°44' W 003°22'4 4.2
2015-Aug-18 00:33N 47°39' W 003°22'9 9.5
2015-Aug-17 23:33N 47°30' W 003°23'9 9.3
2015-Aug-17 22:33N 47°21' W 003°25'9 9.2
2015-Aug-17 21:33N 47°12' W 003°26'9 8.6
2015-Aug-17 20:33N 47°03' W 003°27'3 3.4
2015-Aug-17 19:32N 46°60' W 003°26'4 3.9
2015-Aug-17 18:30N 46°55' W 003°25'4 4.0
2015-Aug-17 17:33N 46°52' W 003°25'4 1.6
2015-Aug-17 15:17N 46°48' W 003°23'5 1.2
2015-Aug-17 11:19N 46°52' W 003°27'8 1.6
2015-Aug-17 06:32N 46°60' W 003°25'4 4.2
2015-Aug-17 05:33N 47°04' W 003°25'5 5.3
2015-Aug-17 04:33N 47°09' W 003°25'9 9.4
2015-Aug-17 03:33N 47°19' W 003°24'9 8.9
2015-Aug-17 02:33N 47°28' W 003°23'9 8.9
2015-Aug-17 01:33N 47°36' W 003°22'7 7.3
2015-Aug-17 00:33N 47°44' W 003°22'  
2015-Aug-14 03:34N 47°44' W 003°22'0 0.0
2015-Aug-14 02:33N 47°44' W 003°22'0 0.0
2015-Aug-14 01:33N 47°44' W 003°22'0 0.0
2015-Aug-14 00:34N 47°44' W 003°22'4 4.0
2015-Aug-13 23:34N 47°40' W 003°22'10 9.6
2015-Aug-13 22:33N 47°30' W 003°23'10 9.6
2015-Aug-13 21:34N 47°21' W 003°24'10 9.6
2015-Aug-13 20:33N 47°11' W 003°25'19 1.1
2015-Aug-13 03:09N 46°52' W 003°33'0 0.1
2015-Aug-12 23:18N 46°52' W 003°33'3 3.2
2015-Aug-12 22:30N 46°53' W 003°30'4 3.7
2015-Aug-12 21:30N 46°51' W 003°27'16 0.9
2015-Aug-12 03:24N 47°06' W 003°23'8 9.3
2015-Aug-12 02:33N 47°14' W 003°24'10 9.8
2015-Aug-12 01:34N 47°24' W 003°23'9 9.3
2015-Aug-12 00:34N 47°33' W 003°23'  

Dump ship's entire track history